createdAt,value
2022-09-23T00:01:14.326Z,99.90
2022-09-23T00:03:45.517Z,99.90
2022-09-23T00:06:16.313Z,99.90
2022-09-23T00:08:44.177Z,99.90
2022-09-23T00:11:19.832Z,99.90
2022-09-23T00:13:48.993Z,99.90
2022-09-23T00:16:23.955Z,99.90
2022-09-23T00:18:51.073Z,99.90
2022-09-23T00:21:19.751Z,99.90
2022-09-23T00:23:47.088Z,99.90
2022-09-23T00:26:16.157Z,99.90
2022-09-23T00:28:43.935Z,99.90
2022-09-23T00:31:17.254Z,99.90
2022-09-23T00:33:44.698Z,99.90
2022-09-23T00:36:15.777Z,99.90
2022-09-23T00:38:44.164Z,99.90
2022-09-23T00:41:11.924Z,99.90
2022-09-23T00:43:47.091Z,99.90
2022-09-23T00:46:20.361Z,99.90
2022-09-23T00:48:50.064Z,99.90
2022-09-23T00:51:20.763Z,99.90
2022-09-23T00:53:50.752Z,99.90
2022-09-23T00:56:20.362Z,99.90
2022-09-23T00:58:49.298Z,99.90
2022-09-23T01:01:16.339Z,99.90
2022-09-23T01:03:45.617Z,99.90
2022-09-23T01:06:13.712Z,99.90
2022-09-23T01:08:42.510Z,99.90
2022-09-23T01:11:34.007Z,99.90
2022-09-23T01:14:22.506Z,99.90
2022-09-23T01:17:16.283Z,99.90
2022-09-23T01:20:04.045Z,99.90
2022-09-23T01:22:39.985Z,99.90
2022-09-23T01:25:32.958Z,99.90
2022-09-23T01:28:24.791Z,99.90
2022-09-23T01:31:05.532Z,99.90
2022-09-23T01:33:51.241Z,99.90
2022-09-23T01:36:28.942Z,99.90
2022-09-23T01:38:59.233Z,99.90
2022-09-23T01:41:34.775Z,99.90
2022-09-23T01:44:09.791Z,99.90
2022-09-23T01:46:53.639Z,99.90
2022-09-23T01:49:32.550Z,99.90
2022-09-23T01:52:28.902Z,99.90
2022-09-23T01:55:08.548Z,99.90
2022-09-23T01:57:42.962Z,99.90
2022-09-23T02:00:16.471Z,99.90
2022-09-23T02:02:59.399Z,99.90
2022-09-23T02:05:34.766Z,99.90
2022-09-23T02:08:09.169Z,99.90
2022-09-23T02:10:47.732Z,99.90
2022-09-23T02:13:48.931Z,99.90
2022-09-23T02:16:26.498Z,99.90
2022-09-23T02:19:11.662Z,99.90
2022-09-23T02:21:43.039Z,99.90
2022-09-23T02:24:30.173Z,99.90
2022-09-23T02:27:08.929Z,99.90
2022-09-23T02:29:45.776Z,99.90
2022-09-23T02:32:22.407Z,99.90
2022-09-23T02:35:26.983Z,99.90
2022-09-23T02:38:02.744Z,99.90
2022-09-23T02:40:41.970Z,99.90
2022-09-23T02:43:08.924Z,99.90
2022-09-23T02:45:38.012Z,99.90
2022-09-23T02:48:13.782Z,99.90
2022-09-23T02:50:40.777Z,99.90
2022-09-23T02:53:08.261Z,99.90
2022-09-23T02:55:35.261Z,99.90
2022-09-23T02:58:05.515Z,99.90
2022-09-23T03:01:05.069Z,99.90
2022-09-23T03:03:47.254Z,99.90
2022-09-23T03:06:32.283Z,99.90
2022-09-23T03:09:31.358Z,99.90
2022-09-23T03:12:22.384Z,99.90
2022-09-23T03:14:49.574Z,99.90
2022-09-23T03:17:27.955Z,99.90
2022-09-23T03:20:23.533Z,99.90
2022-09-23T03:22:57.083Z,99.90
2022-09-23T03:25:25.686Z,99.90
2022-09-23T03:27:57.594Z,99.90
2022-09-23T03:30:26.272Z,99.90
2022-09-23T03:32:55.136Z,99.90
2022-09-23T03:35:25.858Z,99.90
2022-09-23T03:37:58.945Z,99.90
2022-09-23T03:40:30.644Z,99.90
2022-09-23T03:42:58.839Z,99.90
2022-09-23T03:45:29.945Z,99.90
2022-09-23T03:47:56.903Z,99.90
2022-09-23T03:50:24.587Z,99.90
2022-09-23T03:52:51.525Z,99.90
2022-09-23T03:55:20.417Z,99.90
2022-09-23T03:57:47.739Z,99.90
2022-09-23T04:00:15.971Z,99.90
2022-09-23T04:02:43.233Z,99.90
2022-09-23T04:05:11.641Z,99.90
2022-09-23T04:07:38.954Z,99.90
2022-09-23T04:10:06.864Z,99.90
2022-09-23T04:12:33.771Z,99.90
2022-09-23T04:15:00.671Z,99.90
2022-09-23T04:17:27.559Z,99.90
2022-09-23T04:19:54.489Z,99.90
2022-09-23T04:22:21.474Z,99.90
2022-09-23T04:24:49.318Z,99.90
2022-09-23T04:27:16.222Z,99.90
2022-09-23T04:29:43.169Z,99.90
2022-09-23T04:32:10.333Z,99.90
2022-09-23T04:34:37.231Z,99.90
2022-09-23T04:37:04.184Z,99.90
2022-09-23T04:39:31.212Z,99.90
2022-09-23T04:41:58.176Z,99.90
2022-09-23T04:44:26.897Z,99.90
2022-09-23T04:46:53.904Z,99.90
2022-09-23T04:49:20.903Z,99.90
2022-09-23T04:51:47.941Z,99.90
2022-09-23T04:54:15.156Z,99.90
2022-09-23T04:56:42.687Z,99.90
2022-09-23T04:59:09.755Z,99.90
2022-09-23T05:01:36.891Z,99.90
2022-09-23T05:04:07.554Z,99.90
2022-09-23T05:06:35.595Z,99.90
2022-09-23T05:09:04.931Z,99.90
2022-09-23T05:11:32.358Z,99.90
2022-09-23T05:13:59.572Z,99.90
2022-09-23T05:16:27.394Z,99.90
2022-09-23T05:18:54.746Z,99.90
2022-09-23T05:21:24.565Z,99.90
2022-09-23T05:23:59.024Z,99.90
2022-09-23T05:26:28.456Z,99.90
2022-09-23T05:28:56.502Z,99.90
2022-09-23T05:31:26.710Z,99.90
2022-09-23T05:33:57.529Z,99.90
2022-09-23T05:36:25.847Z,99.90
2022-09-23T05:38:54.748Z,99.90
2022-09-23T05:41:25.440Z,99.90
2022-09-23T05:43:53.930Z,99.90
2022-09-23T05:46:26.477Z,99.90
2022-09-23T05:48:53.504Z,99.90
2022-09-23T05:51:25.452Z,99.90
2022-09-23T05:53:58.390Z,99.90
2022-09-23T05:56:27.487Z,99.90
2022-09-23T05:58:56.375Z,99.90
2022-09-23T06:01:26.002Z,99.90
2022-09-23T06:03:57.452Z,99.90
2022-09-23T06:06:29.570Z,99.90
2022-09-23T06:08:57.267Z,99.90
2022-09-23T06:11:24.207Z,99.90
2022-09-23T06:13:55.368Z,99.90
2022-09-23T06:16:22.480Z,99.90
2022-09-23T06:18:49.644Z,99.90
2022-09-23T06:21:17.639Z,99.90
2022-09-23T06:23:45.694Z,99.90
2022-09-23T06:26:16.473Z,99.90
2022-09-23T06:28:44.850Z,99.90
2022-09-23T06:31:15.316Z,99.90
2022-09-23T06:33:43.580Z,99.90
2022-09-23T06:36:12.379Z,99.90
2022-09-23T06:38:41.163Z,99.90
2022-09-23T06:41:08.277Z,99.90
2022-09-23T06:43:35.159Z,99.90
2022-09-23T06:46:04.166Z,99.90
2022-09-23T06:48:36.466Z,99.90
2022-09-23T06:51:07.393Z,99.90
2022-09-23T06:53:35.143Z,99.90
2022-09-23T06:56:05.892Z,99.90
2022-09-23T06:58:35.501Z,99.90
2022-09-23T07:01:04.036Z,99.90
2022-09-23T07:03:32.021Z,99.90
2022-09-23T07:05:59.477Z,99.90
2022-09-23T07:08:27.794Z,99.90
2022-09-23T07:10:56.273Z,99.90
2022-09-23T07:13:23.937Z,99.90
2022-09-23T07:15:55.874Z,99.90
2022-09-23T07:18:25.984Z,99.90
2022-09-23T07:20:53.828Z,99.90
2022-09-23T07:23:21.008Z,99.90
2022-09-23T07:25:49.557Z,99.90
2022-09-23T07:28:16.605Z,99.90
2022-09-23T07:30:55.873Z,99.90
2022-09-23T07:33:32.215Z,99.90
2022-09-23T07:36:00.147Z,99.90
2022-09-23T07:38:30.497Z,99.90
2022-09-23T07:41:13.373Z,99.90
2022-09-23T07:43:40.921Z,99.90
2022-09-23T07:46:11.171Z,99.90
2022-09-23T07:48:38.830Z,99.90
2022-09-23T07:51:20.249Z,99.90
2022-09-23T07:53:51.639Z,99.90
2022-09-23T07:56:26.701Z,99.90
2022-09-23T07:59:00.547Z,99.90
2022-09-23T08:01:36.227Z,99.90
2022-09-23T08:04:07.403Z,99.90
2022-09-23T08:06:34.992Z,99.90
2022-09-23T08:09:01.983Z,99.90
2022-09-23T08:11:29.608Z,99.90
2022-09-23T08:13:57.927Z,99.90
2022-09-23T08:16:24.889Z,99.90
2022-09-23T08:18:52.499Z,99.90
2022-09-23T08:21:24.374Z,99.90
2022-09-23T08:23:55.109Z,99.90
2022-09-23T08:26:22.605Z,99.90
2022-09-23T08:28:53.914Z,99.90
2022-09-23T08:31:23.556Z,99.90
2022-09-23T08:34:01.976Z,99.90
2022-09-23T08:36:29.604Z,99.90
2022-09-23T08:38:57.380Z,99.90
2022-09-23T08:41:41.906Z,99.90
2022-09-23T08:44:17.814Z,99.90
2022-09-23T08:46:53.035Z,99.90
2022-09-23T08:49:32.442Z,99.90
2022-09-23T08:52:06.964Z,99.90
2022-09-23T08:54:34.333Z,99.90
2022-09-23T08:57:04.122Z,99.90
2022-09-23T08:59:41.222Z,99.90
2022-09-23T09:02:29.297Z,99.90
2022-09-23T09:05:01.158Z,99.90
2022-09-23T09:07:37.409Z,99.90
2022-09-23T09:10:22.421Z,99.90
2022-09-23T09:13:07.622Z,99.90
2022-09-23T09:15:46.574Z,99.90
2022-09-23T09:18:20.954Z,99.90
2022-09-23T09:21:05.922Z,99.90
2022-09-23T09:23:55.963Z,99.90
2022-09-23T09:26:35.390Z,99.90
2022-09-23T09:32:41.197Z,99.90
2022-09-23T09:35:21.723Z,99.90
2022-09-23T09:37:48.851Z,99.90
2022-09-23T09:40:17.429Z,99.90
2022-09-23T09:42:49.745Z,99.90
2022-09-23T09:45:27.998Z,99.90
2022-09-23T09:48:18.045Z,99.90
2022-09-23T09:50:52.056Z,99.40
2022-09-23T09:53:25.930Z,99.00
2022-09-23T09:56:07.877Z,99.60
2022-09-23T09:58:54.402Z,99.40
2022-09-23T10:01:32.914Z,96.30
2022-09-23T10:04:06.179Z,95.20
2022-09-23T10:06:35.801Z,93.70
2022-09-23T10:09:08.267Z,95.60
2022-09-23T10:11:35.489Z,95.60
2022-09-23T10:14:14.133Z,92.50
2022-09-23T10:16:42.160Z,87.90
2022-09-23T10:19:29.543Z,89.00
2022-09-23T10:22:01.380Z,83.40
2022-09-23T10:24:30.714Z,80.30
2022-09-23T10:27:02.251Z,82.60
2022-09-23T10:29:38.991Z,87.00
2022-09-23T10:32:20.713Z,87.50
2022-09-23T10:34:54.130Z,88.00
2022-09-23T10:37:38.169Z,84.90
2022-09-23T10:40:34.465Z,82.70
2022-09-23T10:43:43.026Z,79.40
2022-09-23T10:46:47.183Z,75.30
2022-09-23T10:49:38.863Z,75.40
2022-09-23T10:52:27.816Z,72.60
2022-09-23T10:55:22.062Z,71.10
2022-09-23T10:58:04.413Z,70.10
2022-09-23T11:00:43.483Z,68.30
2022-09-23T11:03:25.407Z,68.90
2022-09-23T11:05:55.470Z,68.60
2022-09-23T11:08:59.338Z,70.30
2022-09-23T11:11:50.959Z,71.60
2022-09-23T11:14:32.843Z,71.40
2022-09-23T11:17:14.894Z,72.00
2022-09-23T11:19:57.894Z,69.30
2022-09-23T11:22:24.634Z,64.60
2022-09-23T11:25:18.959Z,63.40
2022-09-23T11:28:04.647Z,63.80
2022-09-23T11:30:41.441Z,57.80
2022-09-23T11:33:42.974Z,57.70
2022-09-23T11:36:31.049Z,58.50
2022-09-23T11:39:01.534Z,56.80
2022-09-23T11:41:36.769Z,57.70
2022-09-23T11:44:20.018Z,57.80
2022-09-23T11:47:23.981Z,56.60
2022-09-23T11:50:03.840Z,59.70
2022-09-23T11:52:42.691Z,59.10
2022-09-23T11:55:24.483Z,58.90
2022-09-23T11:58:00.155Z,58.20
2022-09-23T12:00:34.424Z,57.90
2022-09-23T12:03:19.692Z,57.60
2022-09-23T12:06:12.666Z,58.10
2022-09-23T12:08:39.623Z,56.80
2022-09-23T12:11:37.544Z,57.80
2022-09-23T12:14:29.752Z,58.90
2022-09-23T12:17:02.838Z,57.30
2022-09-23T12:19:48.059Z,57.30
2022-09-23T12:22:33.472Z,57.30
2022-09-23T12:25:19.768Z,55.50
2022-09-23T12:27:51.677Z,57.30
2022-09-23T12:30:21.675Z,56.30
2022-09-23T12:32:48.978Z,52.80
2022-09-23T12:35:27.368Z,51.90
2022-09-23T12:37:54.588Z,52.70
2022-09-23T12:40:28.547Z,51.80
2022-09-23T12:42:55.978Z,51.90
2022-09-23T12:45:32.094Z,52.00
2022-09-23T12:48:00.368Z,50.90
2022-09-23T12:50:51.070Z,50.50
2022-09-23T12:53:36.207Z,51.50
2022-09-23T12:56:23.028Z,53.50
2022-09-23T12:58:50.673Z,51.40
2022-09-23T13:01:26.652Z,51.60
2022-09-23T13:04:14.656Z,49.90
2022-09-23T13:06:46.951Z,49.60
2022-09-23T13:09:19.226Z,46.90
2022-09-23T13:11:48.181Z,48.30
2022-09-23T13:14:26.752Z,49.30
2022-09-23T13:16:57.161Z,51.70
2022-09-23T13:19:27.238Z,48.60
2022-09-23T13:21:59.260Z,48.40
2022-09-23T13:24:28.883Z,49.00
2022-09-23T13:27:26.830Z,48.90
2022-09-23T13:30:00.877Z,48.50
2022-09-23T13:32:39.756Z,49.50
2022-09-23T13:35:18.750Z,47.00
2022-09-23T13:37:50.008Z,47.40
2022-09-23T13:40:19.148Z,47.20
2022-09-23T13:43:12.622Z,47.60
2022-09-23T13:45:43.256Z,47.30
2022-09-23T13:48:15.475Z,47.80
2022-09-23T13:50:50.375Z,47.70
2022-09-23T13:53:31.515Z,47.70
2022-09-23T13:56:13.930Z,47.60
2022-09-23T13:58:40.973Z,48.40
2022-09-23T14:01:10.410Z,48.30
2022-09-23T14:03:39.283Z,48.30
2022-09-23T14:06:12.316Z,48.20
2022-09-23T14:08:43.046Z,50.10
2022-09-23T14:11:16.213Z,49.90
2022-09-23T14:13:44.882Z,51.50
2022-09-23T14:16:17.380Z,52.30
2022-09-23T14:18:49.846Z,52.90
2022-09-23T14:21:36.246Z,52.00
2022-09-23T14:24:19.378Z,52.10
2022-09-23T14:27:06.581Z,52.80
2022-09-23T14:29:36.256Z,52.30
2022-09-23T14:32:23.955Z,53.90
2022-09-23T14:35:00.157Z,51.80
2022-09-23T14:37:56.252Z,51.30
2022-09-23T14:40:28.918Z,51.10
2022-09-23T14:42:58.772Z,51.40
2022-09-23T14:45:29.052Z,52.20
2022-09-23T14:48:12.738Z,53.50
2022-09-23T14:51:06.209Z,52.50
2022-09-23T14:53:37.928Z,52.60
2022-09-23T14:56:09.912Z,51.60
2022-09-23T14:58:57.247Z,52.30
2022-09-23T15:01:25.683Z,51.50
2022-09-23T15:03:53.599Z,51.60
2022-09-23T15:06:23.092Z,51.00
2022-09-23T15:08:55.356Z,50.80
2022-09-23T15:11:22.916Z,51.40
2022-09-23T15:13:52.783Z,51.20
2022-09-23T15:16:27.899Z,51.30
2022-09-23T15:18:57.768Z,51.00
2022-09-23T15:21:30.222Z,51.40
2022-09-23T15:23:57.882Z,52.00
2022-09-23T15:26:47.359Z,51.50
2022-09-23T15:29:14.413Z,52.10
2022-09-23T15:31:41.350Z,52.10
2022-09-23T15:34:11.086Z,52.10
2022-09-23T15:36:38.695Z,53.10
2022-09-23T15:39:08.743Z,52.70
2022-09-23T15:41:35.622Z,54.10
2022-09-23T15:44:13.272Z,54.80
2022-09-23T15:46:52.025Z,55.30
2022-09-23T15:49:29.460Z,56.10
2022-09-23T15:51:59.868Z,56.90
2022-09-23T15:54:28.284Z,57.20
2022-09-23T15:56:56.456Z,57.70
2022-09-23T15:59:24.210Z,58.00
2022-09-23T16:01:52.856Z,58.60
2022-09-23T16:04:20.031Z,59.30
2022-09-23T16:06:48.417Z,60.60
2022-09-23T16:09:15.827Z,61.00
2022-09-23T16:11:48.043Z,62.50
2022-09-23T16:14:17.138Z,63.60
2022-09-23T16:16:45.346Z,64.80
2022-09-23T16:19:12.658Z,66.60
2022-09-23T16:21:44.804Z,67.90
2022-09-23T16:24:17.413Z,69.70
2022-09-23T16:26:46.857Z,72.10
2022-09-23T16:29:14.887Z,74.60
2022-09-23T16:31:42.530Z,77.20
2022-09-23T16:34:09.693Z,81.50
2022-09-23T16:36:41.629Z,84.90
2022-09-23T16:39:12.537Z,87.60
2022-09-23T16:41:40.132Z,91.00
2022-09-23T16:44:09.422Z,94.50
2022-09-23T16:46:36.491Z,95.50
2022-09-23T16:49:03.909Z,97.30
2022-09-23T16:51:42.373Z,97.80
2022-09-23T16:54:13.275Z,98.60
2022-09-23T16:56:46.458Z,99.60
2022-09-23T16:59:15.176Z,99.90
2022-09-23T17:02:01.486Z,99.90
2022-09-23T17:04:28.712Z,99.90
2022-09-23T17:06:56.570Z,99.90
2022-09-23T17:09:26.484Z,99.90
2022-09-23T17:12:04.861Z,99.90
2022-09-23T17:14:32.070Z,99.90
2022-09-23T17:16:59.157Z,99.90
2022-09-23T17:19:26.127Z,99.90
2022-09-23T17:21:53.692Z,99.90
2022-09-23T17:24:20.612Z,99.90
2022-09-23T17:26:52.634Z,99.90
2022-09-23T17:29:20.168Z,99.90
2022-09-23T17:31:47.175Z,99.90
2022-09-23T17:34:14.163Z,99.90
2022-09-23T17:36:41.072Z,99.90
2022-09-23T17:39:08.185Z,99.90
2022-09-23T17:41:35.163Z,99.90
2022-09-23T17:44:02.332Z,99.90
2022-09-23T17:46:31.102Z,99.90
2022-09-23T17:48:58.404Z,99.90
2022-09-23T17:51:25.690Z,99.90
2022-09-23T17:53:52.845Z,99.90
2022-09-23T17:56:31.455Z,99.90
2022-09-23T17:59:02.155Z,99.90
2022-09-23T18:01:29.893Z,99.90
2022-09-23T18:03:59.605Z,99.90
2022-09-23T18:06:28.978Z,99.90
2022-09-23T18:08:56.528Z,99.90
2022-09-23T18:11:28.163Z,99.90
2022-09-23T18:14:02.098Z,99.90
2022-09-23T18:16:36.824Z,99.90
2022-09-23T18:19:05.002Z,99.90
2022-09-23T18:21:34.223Z,99.90
2022-09-23T18:26:52.938Z,99.90
2022-09-23T18:29:20.061Z,99.90
2022-09-23T18:31:49.285Z,99.90
2022-09-23T18:34:17.170Z,99.90
2022-09-23T18:36:44.916Z,99.90
2022-09-23T18:39:12.355Z,99.90
2022-09-23T18:41:39.588Z,99.90
2022-09-23T18:44:06.659Z,99.90
2022-09-23T18:46:33.629Z,99.90
2022-09-23T18:49:19.364Z,99.90
2022-09-23T18:51:57.117Z,99.90
2022-09-23T18:54:27.418Z,99.90
2022-09-23T18:56:55.102Z,99.90
2022-09-23T18:59:28.059Z,99.90
2022-09-23T19:01:55.846Z,99.90
2022-09-23T19:04:25.088Z,99.90
2022-09-23T19:06:53.716Z,99.90
2022-09-23T19:09:20.844Z,99.90
2022-09-23T19:11:52.383Z,99.90
2022-09-23T19:14:19.618Z,99.90
2022-09-23T19:16:49.056Z,99.90
2022-09-23T19:19:16.139Z,99.90
2022-09-23T19:21:43.278Z,99.90
2022-09-23T19:24:15.867Z,99.90
2022-09-23T19:26:43.738Z,99.90
2022-09-23T19:29:16.158Z,99.90
2022-09-23T19:31:44.029Z,99.90
2022-09-23T19:34:16.512Z,99.90
2022-09-23T19:36:45.066Z,99.90
2022-09-23T19:39:22.276Z,99.90
2022-09-23T19:41:50.546Z,99.90
2022-09-23T19:44:19.951Z,99.90
2022-09-23T19:46:55.116Z,99.90
2022-09-23T19:49:24.806Z,99.90
2022-09-23T19:51:52.266Z,99.90
2022-09-23T19:54:20.932Z,99.90
2022-09-23T19:56:51.867Z,99.90
2022-09-23T19:59:19.492Z,99.90
2022-09-23T20:01:50.007Z,99.90
2022-09-23T20:04:17.348Z,99.90
2022-09-23T20:06:46.012Z,99.90
2022-09-23T20:09:13.138Z,99.90
2022-09-23T20:11:42.908Z,99.90
2022-09-23T20:14:11.971Z,99.90
2022-09-23T20:16:38.966Z,99.90
2022-09-23T20:19:06.288Z,99.90
2022-09-23T20:21:34.512Z,99.90
2022-09-23T20:24:05.254Z,99.90
2022-09-23T20:26:51.366Z,99.90
2022-09-23T20:29:18.431Z,99.90
2022-09-23T20:31:45.372Z,99.90
2022-09-23T20:34:12.709Z,99.90
2022-09-23T20:36:41.464Z,99.90
2022-09-23T20:39:10.250Z,99.90
2022-09-23T20:41:39.219Z,99.90
2022-09-23T20:44:09.768Z,99.90
2022-09-23T20:46:36.884Z,99.90
2022-09-23T20:49:04.652Z,99.90
2022-09-23T20:51:35.337Z,99.90
2022-09-23T20:54:02.540Z,99.90
2022-09-23T20:56:30.020Z,99.90
2022-09-23T20:59:04.292Z,99.90
2022-09-23T21:01:37.128Z,99.90
2022-09-23T21:04:06.080Z,99.90
2022-09-23T21:06:37.826Z,99.90
2022-09-23T21:09:06.622Z,99.90
2022-09-23T21:11:34.003Z,99.90
2022-09-23T21:14:02.158Z,99.90
2022-09-23T21:16:29.729Z,99.90
2022-09-23T21:18:57.724Z,99.90
2022-09-23T21:21:24.875Z,99.90
2022-09-23T21:23:52.279Z,99.90
2022-09-23T21:26:21.596Z,99.90
2022-09-23T21:28:50.672Z,99.90
2022-09-23T21:31:23.838Z,99.90
2022-09-23T21:34:02.655Z,99.90
2022-09-23T21:36:34.731Z,99.90
2022-09-23T21:39:03.096Z,99.90
2022-09-23T21:41:30.454Z,99.90
2022-09-23T21:43:57.834Z,99.90
2022-09-23T21:46:25.540Z,99.90
2022-09-23T21:48:54.026Z,99.90
2022-09-23T21:51:25.595Z,99.90
2022-09-23T21:53:54.716Z,99.90
2022-09-23T21:56:27.222Z,99.90
2022-09-23T21:58:55.268Z,99.90
2022-09-23T22:01:30.943Z,99.90
2022-09-23T22:04:03.945Z,99.90
2022-09-23T22:06:31.773Z,99.90
2022-09-23T22:09:01.324Z,99.90
2022-09-23T22:12:05.186Z,99.90
2022-09-23T22:14:31.965Z,99.90
2022-09-23T22:17:01.463Z,99.90
2022-09-23T22:19:35.218Z,99.90
2022-09-23T22:22:07.870Z,99.90
2022-09-23T22:24:34.753Z,99.90
2022-09-23T22:27:01.652Z,99.90
2022-09-23T22:29:46.932Z,99.90
2022-09-23T22:32:32.199Z,99.90
2022-09-23T22:34:59.109Z,99.90
2022-09-23T22:37:28.813Z,99.90
2022-09-23T22:39:56.068Z,99.90
2022-09-23T22:42:23.044Z,99.90
2022-09-23T22:44:51.089Z,99.90
2022-09-23T22:47:19.686Z,99.90
2022-09-23T22:49:47.598Z,99.90
2022-09-23T22:52:21.150Z,99.90
2022-09-23T22:54:48.242Z,99.90
2022-09-23T22:57:15.299Z,99.90
2022-09-23T22:59:48.090Z,99.90
2022-09-23T23:02:20.866Z,99.90
2022-09-23T23:04:48.166Z,99.90
2022-09-23T23:07:21.164Z,99.90
2022-09-23T23:09:49.547Z,99.90
2022-09-23T23:12:18.979Z,99.90
2022-09-23T23:14:46.486Z,99.90
2022-09-23T23:17:13.624Z,99.90
2022-09-23T23:19:40.530Z,99.90
2022-09-23T23:22:07.498Z,99.90
2022-09-23T23:24:34.411Z,99.90
2022-09-23T23:27:01.324Z,99.90
2022-09-23T23:29:28.272Z,99.90
2022-09-23T23:31:55.281Z,99.90
2022-09-23T23:34:22.402Z,99.90
2022-09-23T23:41:20.599Z,99.90
2022-09-23T23:44:00.194Z,99.90
2022-09-23T23:46:38.255Z,99.90
2022-09-23T23:49:26.742Z,99.90
2022-09-23T23:52:00.620Z,99.90
2022-09-23T23:54:27.583Z,99.90
2022-09-23T23:57:35.978Z,99.90
